Time;durP1;ratioP1;P1;durP2;ratioP2;P2;SDS_P1;SDS_P2;PMS_P1;PMS_P2;Temp;Humidity;BMP_temperature;BMP_pressure;BME280_temperature;BME280_humidity;BME280_pressure;Samples;Min_cycle;Max_cycle;Signal;HPM_P1;HPM_P2
2022/01/07 00:01:30;;;;;;;;;;;;;;;;;;5026065;28;19924;-79
2022/01/07 00:03:56;;;;;;;;;;;;;;;;;;5032260;28;20264;-80
2022/01/07 00:06:22;;;;;;;;;;;;;;;;;;5028592;28;20235;-79
2022/01/07 00:08:48;;;;;;;;;;;;;;;;;;5030349;28;19986;-79
2022/01/07 00:11:14;;;;;;;;;;;;;;;;;;5048056;28;19924;-80
2022/01/07 00:13:40;;;;;;;;;;;;;;;;;;5029380;28;19924;-80
2022/01/07 00:16:11;;;;;;;;;;;;;;;;;;5027697;28;19928;-80
2022/01/07 00:18:37;;;;;;;;;;;;;;;;;;5014589;28;19977;-79
2022/01/07 00:21:03;;;;;;;;;;;;;;;;;;5048092;28;19927;-80
2022/01/07 00:23:37;;;;;;;;;;;;;;;;;;5028434;28;19923;-80
2022/01/07 00:26:03;;;;;;;;;;;;;;;;;;5012096;28;19929;-80
2022/01/07 00:28:30;;;;;;;;;;;;;;;;;;5029250;28;20670;-80
2022/01/07 00:30:56;;;;;;;;;;;;;;;;;;5050045;28;20513;-80
2022/01/07 00:33:26;;;;;;;;;;;;;;;;;;5030327;28;20042;-80
2022/01/07 00:35:52;;;;;;;;;;;;;;;;;;5017444;28;20038;-80
2022/01/07 00:38:18;;;;;;;;;;;;;;;;;;5029752;28;19920;-79
2022/01/07 00:40:44;;;;;;;;;;;;;;;;;;5019007;28;19928;-80
2022/01/07 00:43:10;;;;;;;;;;;;;;;;;;5036741;28;19928;-80
2022/01/07 00:45:36;;;;;;;;;;;;;;;;;;5026586;28;20299;-80
2022/01/07 00:48:02;;;;;;;;;;;;;;;;;;5039485;28;20251;-80
2022/01/07 00:50:28;;;;;;;;;;;;;;;;;;5029110;28;19924;-80
2022/01/07 00:52:54;;;;;;;;;;;;;;;;;;5049914;28;19928;-80
2022/01/07 00:55:20;;;;;;;;;;;;;;;;;;5012191;28;19925;-79
2022/01/07 00:57:47;;;;;;;;;;;;;;;;;;5035315;28;20336;-80
2022/01/07 01:00:13;;;;;;;;;;;;;;;;;;5051567;28;20298;-80
2022/01/07 01:02:42;;;;;;;;;;;;;;;;;;5047730;28;20379;-80
2022/01/07 01:05:09;;;;;;;;;;;;;;;;;;5019094;28;19924;-80
2022/01/07 01:07:35;;;;;;;;;;;;;;;;;;5036773;28;19928;-80
2022/01/07 01:10:01;;;;;;;;;;;;;;;;;;5032702;28;19972;-80
2022/01/07 01:12:34;;;;;;;;;;;;;;;;;;5033334;28;19933;-81
2022/01/07 01:15:00;;;;;;;;;;;;;;;;;;5053463;28;19955;-82
2022/01/07 01:17:26;;;;;;;;;;;;;;;;;;5015060;28;19977;-82
2022/01/07 01:19:52;;;;;;;;;;;;;;;;;;5035091;28;20078;-82
2022/01/07 01:22:18;;;;;;;;;;;;;;;;;;5031185;28;20019;-82
2022/01/07 01:24:44;;;;;;;;;;;;;;;;;;5034024;28;20038;-83
2022/01/07 01:27:10;;;;;;;;;;;;;;;;;;5035882;28;20537;-82
2022/01/07 01:29:37;;;;;;;;;;;;;;;;;;5044795;28;19929;-82
2022/01/07 01:32:03;;;;;;;;;;;;;;;;;;5027475;28;19928;-83
2022/01/07 01:34:32;;;;;;;;;;;;;;;;;;5053302;28;20217;-82
2022/01/07 01:36:58;;;;;;;;;;;;;;;;;;5051253;28;19925;-82
2022/01/07 01:39:24;;;;;;;;;;;;;;;;;;5030129;28;19939;-82
2022/01/07 01:41:50;;;;;;;;;;;;;;;;;;5049928;28;19929;-83
2022/01/07 01:44:16;;;;;;;;;;;;;;;;;;5016540;28;20438;-82
2022/01/07 01:46:42;;;;;;;;;;;;;;;;;;5050498;28;19993;-83
2022/01/07 01:49:08;;;;;;;;;;;;;;;;;;5048155;28;19924;-82
2022/01/07 01:51:34;;;;;;;;;;;;;;;;;;5029656;28;19931;-82
2022/01/07 01:54:00;;;;;;;;;;;;;;;;;;5048308;28;20487;-82
2022/01/07 01:56:26;;;;;;;;;;;;;;;;;;5037797;28;20296;-82
2022/01/07 01:58:52;;;;;;;;;;;;;;;;;;5019197;28;19966;-83
2022/01/07 02:01:27;;;;;;;;;;;;;;;;;;5017220;28;19932;-82
2022/01/07 02:03:53;;;;;;;;;;;;;;;;;;5017928;28;20003;-82
2022/01/07 02:06:19;;;;;;;;;;;;;;;;;;5016650;28;19963;-82
2022/01/07 02:09:06;;;;;;;;;;;;;;;;;;5026908;28;20102;-82
2022/01/07 02:11:34;;;;;;;;;;;;;;;;;;5027387;28;19944;-82
2022/01/07 02:14:00;;;;;;;;;;;;;;;;;;5050054;28;20078;-82
2022/01/07 02:16:29;;;;;;;;;;;;;;;;;;5025944;28;20714;-83
2022/01/07 02:18:58;;;;;;;;;;;;;;;;;;5034956;28;19927;-82
2022/01/07 02:21:27;;;;;;;;;;;;;;;;;;5031520;28;19920;-82
2022/01/07 02:23:53;;;;;;;;;;;;;;;;;;5015205;28;19951;-83
2022/01/07 02:26:19;;;;;;;;;;;;;;;;;;5046911;28;20490;-81
2022/01/07 02:28:45;;;;;;;;;;;;;;;;;;5030938;28;19933;-83
2022/01/07 02:31:11;;;;;;;;;;;;;;;;;;5051374;28;19950;-82
2022/01/07 02:33:37;;;;;;;;;;;;;;;;;;5042586;28;19969;-83
2022/01/07 02:36:03;;;;;;;;;;;;;;;;;;5052512;28;20244;-83
2022/01/07 02:38:29;;;;;;;;;;;;;;;;;;5020107;28;19925;-82
2022/01/07 02:40:55;;;;;;;;;;;;;;;;;;5029992;28;19935;-81
2022/01/07 02:43:21;;;;;;;;;;;;;;;;;;5030013;28;19967;-82
2022/01/07 02:45:46;;;;;;;;;;;;;;;;;;5053350;28;20290;-82
2022/01/07 02:48:12;;;;;;;;;;;;;;;;;;5035357;28;20393;-83
2022/01/07 02:50:38;;;;;;;;;;;;;;;;;;5047230;28;19971;-84
2022/01/07 02:53:04;;;;;;;;;;;;;;;;;;5019140;28;19932;-82
2022/01/07 02:55:30;;;;;;;;;;;;;;;;;;5030344;28;19928;-83
2022/01/07 02:57:56;;;;;;;;;;;;;;;;;;5019132;28;20061;-86
2022/01/07 03:00:22;;;;;;;;;;;;;;;;;;5028086;28;19994;-85
2022/01/07 03:02:49;;;;;;;;;;;;;;;;;;5017733;28;19951;-85
2022/01/07 03:05:14;;;;;;;;;;;;;;;;;;5047137;28;19928;-84
2022/01/07 03:07:41;;;;;;;;;;;;;;;;;;5034602;28;20415;-86
2022/01/07 03:10:07;;;;;;;;;;;;;;;;;;5033566;28;19936;-86
2022/01/07 03:12:33;;;;;;;;;;;;;;;;;;5048367;28;21017;-85
2022/01/07 03:14:58;;;;;;;;;;;;;;;;;;5023770;28;19971;-85
2022/01/07 03:17:24;;;;;;;;;;;;;;;;;;5046452;28;19979;-85
2022/01/07 03:19:50;;;;;;;;;;;;;;;;;;5048271;28;19929;-85
2022/01/07 03:22:16;;;;;;;;;;;;;;;;;;5051921;28;19932;-86
2022/01/07 03:24:42;;;;;;;;;;;;;;;;;;5042396;28;19924;-84
2022/01/07 03:27:08;;;;;;;;;;;;;;;;;;5056898;28;19974;-82
2022/01/07 03:29:34;;;;;;;;;;;;;;;;;;5053463;28;20074;-84
2022/01/07 03:32:00;;;;;;;;;;;;;;;;;;5048059;28;19939;-84
2022/01/07 03:34:26;;;;;;;;;;;;;;;;;;5030374;28;20324;-84
2022/01/07 03:36:52;;;;;;;;;;;;;;;;;;5038251;28;20537;-83
2022/01/07 03:39:18;;;;;;;;;;;;;;;;;;5044009;28;20024;-83
2022/01/07 03:41:44;;;;;;;;;;;;;;;;;;5029505;28;19921;-83
2022/01/07 03:44:10;;;;;;;;;;;;;;;;;;5051935;28;20021;-83
2022/01/07 03:46:36;;;;;;;;;;;;;;;;;;5053088;28;19971;-83
2022/01/07 03:49:02;;;;;;;;;;;;;;;;;;5050322;28;19933;-83
2022/01/07 03:51:28;;;;;;;;;;;;;;;;;;5046180;28;19928;-83
2022/01/07 03:53:54;;;;;;;;;;;;;;;;;;5035588;28;19924;-82
2022/01/07 03:56:21;;;;;;;;;;;;;;;;;;5017508;28;19924;-83
2022/01/07 03:58:47;;;;;;;;;;;;;;;;;;5038200;28;19967;-83
2022/01/07 04:01:12;;;;;;;;;;;;;;;;;;5038764;28;19970;-83
2022/01/07 04:03:38;;;;;;;;;;;;;;;;;;5033502;28;19950;-83
2022/01/07 04:06:04;;;;;;;;;;;;;;;;;;5052408;28;19927;-84
2022/01/07 04:08:30;;;;;;;;;;;;;;;;;;5050484;28;19932;-82
2022/01/07 04:10:56;;;;;;;;;;;;;;;;;;5034543;28;19931;-83
2022/01/07 04:13:24;;;;;;;;;;;;;;;;;;5035470;28;20022;-82
2022/01/07 04:15:50;;;;;;;;;;;;;;;;;;5053103;28;19963;-84
2022/01/07 04:18:16;;;;;;;;;;;;;;;;;;5032929;28;19956;-82
2022/01/07 04:20:41;;;;;;;;;;;;;;;;;;5036412;28;19921;-83
2022/01/07 04:23:07;;;;;;;;;;;;;;;;;;5041442;28;20388;-83
2022/01/07 04:25:33;;;;;;;;;;;;;;;;;;5020684;28;20594;-83
2022/01/07 04:27:59;;;;;;;;;;;;;;;;;;5055982;28;19927;-85
2022/01/07 04:30:25;;;;;;;;;;;;;;;;;;5028833;28;20379;-82
2022/01/07 04:32:53;;;;;;;;;;;;;;;;;;5037624;28;19932;-84
2022/01/07 04:35:20;;;;;;;;;;;;;;;;;;5032347;28;20009;-82
2022/01/07 04:37:45;;;;;;;;;;;;;;;;;;5035189;28;19979;-83
2022/01/07 04:40:11;;;;;;;;;;;;;;;;;;5041225;28;19933;-83
2022/01/07 04:42:37;;;;;;;;;;;;;;;;;;5013313;28;20016;-82
2022/01/07 04:45:03;;;;;;;;;;;;;;;;;;5011876;28;20556;-82
2022/01/07 04:47:29;;;;;;;;;;;;;;;;;;5011272;28;20177;-82
2022/01/07 04:49:55;;;;;;;;;;;;;;;;;;5016199;28;19933;-83
2022/01/07 04:52:22;;;;;;;;;;;;;;;;;;5009075;28;19928;-83
2022/01/07 04:54:48;;;;;;;;;;;;;;;;;;5011754;28;19929;-84
2022/01/07 04:57:30;;;;;;;;;;;;;;;;;;5007494;28;20400;-84
2022/01/07 04:59:59;;;;;;;;;;;;;;;;;;5016042;28;20047;-83
2022/01/07 05:02:28;;;;;;;;;;;;;;;;;;5021613;28;20253;-84
2022/01/07 05:04:54;;;;;;;;;;;;;;;;;;5012089;28;20532;-84
2022/01/07 05:07:20;;;;;;;;;;;;;;;;;;5012281;28;19983;-84
2022/01/07 05:09:46;;;;;;;;;;;;;;;;;;5010366;28;20023;-86
2022/01/07 05:12:12;;;;;;;;;;;;;;;;;;5013952;28;20044;-84
2022/01/07 05:14:38;;;;;;;;;;;;;;;;;;5009728;28;19925;-82
2022/01/07 05:17:04;;;;;;;;;;;;;;;;;;5015967;28;19925;-83
2022/01/07 05:19:30;;;;;;;;;;;;;;;;;;5013395;28;20043;-84
2022/01/07 05:21:56;;;;;;;;;;;;;;;;;;5009443;28;19978;-82
2022/01/07 05:24:22;;;;;;;;;;;;;;;;;;5012846;28;19928;-82
2022/01/07 05:26:51;;;;;;;;;;;;;;;;;;5026999;28;20370;-82
2022/01/07 05:29:17;;;;;;;;;;;;;;;;;;4992760;28;20075;-83
2022/01/07 05:31:43;;;;;;;;;;;;;;;;;;5011641;28;19929;-83
2022/01/07 05:34:10;;;;;;;;;;;;;;;;;;5010171;28;20027;-80
2022/01/07 05:36:38;;;;;;;;;;;;;;;;;;5028570;28;19921;-79
2022/01/07 05:39:05;;;;;;;;;;;;;;;;;;5023455;28;20024;-80
2022/01/07 05:41:31;;;;;;;;;;;;;;;;;;5020499;28;19925;-79
2022/01/07 05:43:57;;;;;;;;;;;;;;;;;;5024712;28;19999;-81
2022/01/07 05:46:23;;;;;;;;;;;;;;;;;;5030734;28;19974;-80
2022/01/07 05:48:49;;;;;;;;;;;;;;;;;;5060647;28;20381;-80
2022/01/07 05:51:15;;;;;;;;;;;;;;;;;;5057260;28;19974;-80
2022/01/07 05:53:41;;;;;;;;;;;;;;;;;;5055261;28;19920;-81
2022/01/07 05:56:07;;;;;;;;;;;;;;;;;;5055144;28;20350;-80
2022/01/07 05:58:33;;;;;;;;;;;;;;;;;;5055707;28;19978;-81
2022/01/07 06:00:59;;;;;;;;;;;;;;;;;;5016929;28;20324;-80
2022/01/07 06:03:25;;;;;;;;;;;;;;;;;;5034651;28;19982;-81
2022/01/07 06:05:51;;;;;;;;;;;;;;;;;;5041952;28;20290;-80
2022/01/07 06:08:17;;;;;;;;;;;;;;;;;;5035387;28;20022;-80
2022/01/07 06:10:43;;;;;;;;;;;;;;;;;;5038268;28;19928;-81
2022/01/07 06:13:09;;;;;;;;;;;;;;;;;;5041213;28;19925;-81
2022/01/07 06:15:35;;;;;;;;;;;;;;;;;;5054673;28;19928;-80
2022/01/07 06:18:01;;;;;;;;;;;;;;;;;;5036823;28;19927;-81
2022/01/07 06:20:29;;;;;;;;;;;;;;;;;;5050707;28;19929;-81
2022/01/07 06:22:55;;;;;;;;;;;;;;;;;;5038078;28;19936;-80
2022/01/07 06:25:21;;;;;;;;;;;;;;;;;;5053248;28;19920;-80
2022/01/07 06:27:47;;;;;;;;;;;;;;;;;;5045972;28;19924;-81
2022/01/07 06:30:13;;;;;;;;;;;;;;;;;;5038504;28;19929;-80
2022/01/07 06:32:39;;;;;;;;;;;;;;;;;;5058035;28;19928;-80
2022/01/07 06:35:05;;;;;;;;;;;;;;;;;;5038463;28;19974;-80
2022/01/07 06:37:31;;;;;;;;;;;;;;;;;;5036010;28;20382;-80
2022/01/07 06:39:57;;;;;;;;;;;;;;;;;;5055131;28;19929;-80
2022/01/07 06:42:23;;;;;;;;;;;;;;;;;;5021924;28;19920;-80
2022/01/07 06:44:49;;;;;;;;;;;;;;;;;;5039489;28;19917;-79
2022/01/07 06:47:15;;;;;;;;;;;;;;;;;;5037368;28;19963;-79
2022/01/07 06:49:41;;;;;;;;;;;;;;;;;;5034679;28;19970;-80
2022/01/07 06:52:07;;;;;;;;;;;;;;;;;;5039295;28;19986;-80
2022/01/07 06:54:33;;;;;;;;;;;;;;;;;;5025379;28;19928;-81
2022/01/07 06:56:59;;;;;;;;;;;;;;;;;;5040258;28;19980;-80
2022/01/07 06:59:25;;;;;;;;;;;;;;;;;;5033426;28;19929;-80
2022/01/07 07:01:51;;;;;;;;;;;;;;;;;;5054193;28;20070;-79
2022/01/07 07:04:17;;;;;;;;;;;;;;;;;;5050909;28;19932;-79
2022/01/07 07:06:42;;;;;;;;;;;;;;;;;;5060855;28;19924;-80
2022/01/07 07:09:08;;;;;;;;;;;;;;;;;;5055746;28;20969;-80
2022/01/07 07:11:34;;;;;;;;;;;;;;;;;;5047372;28;20997;-81
2022/01/07 07:14:00;;;;;;;;;;;;;;;;;;5056718;28;19930;-80
2022/01/07 07:16:26;;;;;;;;;;;;;;;;;;5050933;28;19934;-80
2022/01/07 07:18:52;;;;;;;;;;;;;;;;;;5035528;28;19921;-81
2022/01/07 07:21:18;;;;;;;;;;;;;;;;;;5035136;28;20396;-80
2022/01/07 07:23:44;;;;;;;;;;;;;;;;;;5040591;28;19920;-81
2022/01/07 07:26:10;;;;;;;;;;;;;;;;;;5039424;28;20345;-80
2022/01/07 07:28:38;;;;;;;;;;;;;;;;;;5053212;28;19928;-80
2022/01/07 07:31:07;;;;;;;;;;;;;;;;;;5020118;28;19943;-80
2022/01/07 07:38:52;;;;;;;;;;;;;;;;;;5040126;28;19920;-81
2022/01/07 07:41:18;;;;;;;;;;;;;;;;;;5033751;28;19936;-79
2022/01/07 07:43:46;;;;;;;;;;;;;;;;;;5001286;28;19924;-80
2022/01/07 07:46:12;;;;;;;;;;;;;;;;;;5019526;28;22050;-80
2022/01/07 07:48:38;;;;;;;;;;;;;;;;;;5019438;28;20006;-79
2022/01/07 07:51:04;;;;;;;;;;;;;;;;;;5015741;28;20386;-80
2022/01/07 07:53:30;;;;;;;;;;;;;;;;;;5034057;28;19931;-80
2022/01/07 07:55:55;;;;;;;;;;;;;;;;;;5016557;28;19917;-80
2022/01/07 07:58:22;;;;;;;;;;;;;;;;;;5016123;28;19925;-80
2022/01/07 08:00:48;;;;;;;;;;;;;;;;;;5015874;28;19928;-80
2022/01/07 08:03:14;;;;;;;;;;;;;;;;;;5018820;28;19920;-81
2022/01/07 08:05:40;;;;;;;;;;;;;;;;;;5033312;28;20421;-80
2022/01/07 08:11:11;;;;;;;;;;;;;;;;;;5013377;28;19952;-81
2022/01/07 08:16:23;;;;;;;;;;;;;;;;;;5029635;28;19975;-81
2022/01/07 08:18:49;;;;;;;;;;;;;;;;;;5023484;28;19928;-79
2022/01/07 08:21:15;;;;;;;;;;;;;;;;;;5010478;28;20295;-81
2022/01/07 08:23:41;;;;;;;;;;;;;;;;;;5025278;28;19928;-81
2022/01/07 08:26:09;;;;;;;;;;;;;;;;;;5021347;28;19936;-79
2022/01/07 08:28:40;;;;;;;;;;;;;;;;;;5015609;28;21244;-80
2022/01/07 08:36:20;;;;;;;;;;;;;;;;;;5013480;28;20388;-81
2022/01/07 08:38:46;;;;;;;;;;;;;;;;;;5020419;28;19932;-81
2022/01/07 08:41:12;;;;;;;;;;;;;;;;;;5054138;28;19924;-81
2022/01/07 08:43:39;;;;;;;;;;;;;;;;;;5033639;28;20393;-81
2022/01/07 08:46:05;;;;;;;;;;;;;;;;;;5042710;28;20371;-81
2022/01/07 08:48:30;;;;;;;;;;;;;;;;;;5055618;28;19958;-82
2022/01/07 08:50:56;;;;;;;;;;;;;;;;;;5054286;28;20063;-82
2022/01/07 08:53:22;;;;;;;;;;;;;;;;;;5037168;28;19952;-80
2022/01/07 08:55:51;;;;;;;;;;;;;;;;;;5032023;28;20010;-81
2022/01/07 08:58:17;;;;;;;;;;;;;;;;;;5065293;28;20007;-80
2022/01/07 09:00:43;;;;;;;;;;;;;;;;;;5046793;28;19929;-81
2022/01/07 09:03:10;;;;;;;;;;;;;;;;;;5066174;28;20010;-81
2022/01/07 09:05:36;;;;;;;;;;;;;;;;;;5036859;28;19974;-80
2022/01/07 09:08:02;;;;;;;;;;;;;;;;;;5019004;28;19956;-81
2022/01/07 09:10:31;;;;;;;;;;;;;;;;;;5037589;28;20291;-81
2022/01/07 09:13:07;;;;;;;;;;;;;;;;;;;;;
2022/01/07 09:15:40;;;;;;;;;;;;;;;;;;5056627;28;19920;-81
2022/01/07 09:18:10;;;;;;;;;;;;;;;;;;5054272;28;20279;-81
2022/01/07 09:20:36;;;;;;;;;;;;;;;;;;5056276;28;20477;-81
2022/01/07 09:23:02;;;;;;;;;;;;;;;;;;5048252;28;20673;-82
2022/01/07 09:25:28;;;;;;;;;;;;;;;;;;5042781;28;19928;-80
2022/01/07 09:27:57;;;;;;;;;;;;;;;;;;5041516;28;19932;-81
2022/01/07 09:30:23;;;;;;;;;;;;;;;;;;5037405;28;19981;-80
2022/01/07 09:32:49;;;;;;;;;;;;;;;;;;5029211;28;19921;-80
2022/01/07 09:35:16;;;;;;;;;;;;;;;;;;5054581;28;19925;-80
2022/01/07 09:37:47;;;;;;;;;;;;;;;;;;5027114;28;19950;-81
2022/01/07 09:40:16;;;;;;;;;;;;;;;;;;5044498;28;20418;-81
2022/01/07 09:42:42;;;;;;;;;;;;;;;;;;5048817;28;20040;-80
2022/01/07 09:45:10;;;;;;;;;;;;;;;;;;5058244;28;19928;-80
2022/01/07 09:47:44;;;;;;;;;;;;;;;;;;5025443;28;20419;-81
2022/01/07 09:50:27;;;;;;;;;;;;;;;;;;5057669;28;19967;-81
2022/01/07 09:52:53;;;;;;;;;;;;;;;;;;5042295;28;19966;-81
2022/01/07 09:55:40;;;;;;;;;;;;;;;;;;5050241;28;19925;-81
2022/01/07 09:58:13;;;;;;;;;;;;;;;;;;5048777;28;20381;-81
2022/01/07 10:00:47;;;;;;;;;;;;;;;;;;5044819;28;19976;-81
2022/01/07 10:03:13;;;;;;;;;;;;;;;;;;5047017;28;20415;-81
2022/01/07 10:05:49;;;;;;;;;;;;;;;;;;5040342;28;19931;-81
2022/01/07 10:08:15;;;;;;;;;;;;;;;;;;5043162;28;19920;-81
2022/01/07 10:10:41;;;;;;;;;;;;;;;;;;5064329;28;19928;-81
2022/01/07 10:13:07;;;;;;;;;;;;;;;;;;5046282;28;19978;-80
2022/01/07 10:15:33;;;;;;;;;;;;;;;;;;5054423;28;19924;-80
2022/01/07 10:17:59;;;;;;;;;;;;;;;;;;5061738;28;19933;-81
2022/01/07 10:20:25;;;;;;;;;;;;;;;;;;5038076;28;19974;-80
2022/01/07 10:22:52;;;;;;;;;;;;;;;;;;5044446;28;19946;-80
2022/01/07 10:25:18;;;;;;;;;;;;;;;;;;5040046;28;20390;-80
2022/01/07 10:27:44;;;;;;;;;;;;;;;;;;5050528;28;19975;-80
2022/01/07 10:30:10;;;;;;;;;;;;;;;;;;5043432;28;20401;-80
2022/01/07 10:32:36;;;;;;;;;;;;;;;;;;5046866;28;20311;-80
2022/01/07 10:35:02;;;;;;;;;;;;;;;;;;5032326;28;20021;-81
2022/01/07 10:37:28;;;;;;;;;;;;;;;;;;5040102;28;19932;-81
2022/01/07 10:40:01;;;;;;;;;;;;;;;;;;5040998;28;20283;-80
2022/01/07 10:42:27;;;;;;;;;;;;;;;;;;5032217;28;20356;-82
2022/01/07 10:44:53;;;;;;;;;;;;;;;;;;5044538;28;19917;-82
2022/01/07 10:47:19;;;;;;;;;;;;;;;;;;5036513;28;19927;-82
2022/01/07 10:49:45;;;;;;;;;;;;;;;;;;5037818;28;20993;-84
2022/01/07 10:52:11;;;;;;;;;;;;;;;;;;5028676;28;20021;-83
2022/01/07 10:54:37;;;;;;;;;;;;;;;;;;5035434;28;20011;-83
2022/01/07 10:57:03;;;;;;;;;;;;;;;;;;5040945;28;20011;-83
2022/01/07 10:59:30;;;;;;;;;;;;;;;;;;5018937;28;19944;-84
2022/01/07 11:01:56;;;;;;;;;;;;;;;;;;5040955;28;19987;-83
2022/01/07 11:04:22;;;;;;;;;;;;;;;;;;5036224;28;19960;-82
2022/01/07 11:06:47;;;;;;;;;;;;;;;;;;5021173;28;19947;-82
2022/01/07 11:09:14;;;;;;;;;;;;;;;;;;5022069;28;19936;-83
2022/01/07 11:11:40;;;;;;;;;;;;;;;;;;5039602;28;19929;-83
2022/01/07 11:14:06;;;;;;;;;;;;;;;;;;5018626;28;20350;-82
2022/01/07 11:16:32;;;;;;;;;;;;;;;;;;5032987;28;19932;-83
2022/01/07 11:18:58;;;;;;;;;;;;;;;;;;5039290;28;19921;-83
2022/01/07 11:21:24;;;;;;;;;;;;;;;;;;5031680;28;19921;-83
2022/01/07 11:23:50;;;;;;;;;;;;;;;;;;5032305;28;19931;-83
2022/01/07 11:26:17;;;;;;;;;;;;;;;;;;5027125;28;19979;-84
2022/01/07 11:28:43;;;;;;;;;;;;;;;;;;5038079;28;19929;-85
2022/01/07 11:31:13;;;;;;;;;;;;;;;;;;5021593;28;19975;-86
2022/01/07 11:33:39;;;;;;;;;;;;;;;;;;5030103;28;20043;-83
2022/01/07 11:36:05;;;;;;;;;;;;;;;;;;5037647;28;19924;-84
2022/01/07 11:38:31;;;;;;;;;;;;;;;;;;5039753;28;19924;-83
2022/01/07 11:40:57;;;;;;;;;;;;;;;;;;5020143;28;19948;-83
2022/01/07 11:43:32;;;;;;;;;;;;;;;;;;5017330;28;19924;-84
2022/01/07 11:45:58;;;;;;;;;;;;;;;;;;5022480;28;19929;-84
2022/01/07 11:48:30;;;;;;;;;;;;;;;;;;5003214;28;19931;-84
2022/01/07 11:50:56;;;;;;;;;;;;;;;;;;5019580;28;19921;-84
2022/01/07 11:53:22;;;;;;;;;;;;;;;;;;5017632;28;19918;-83
2022/01/07 11:55:49;;;;;;;;;;;;;;;;;;5019593;28;19964;-84
2022/01/07 11:58:17;;;;;;;;;;;;;;;;;;5033421;28;19918;-84
2022/01/07 12:00:44;;;;;;;;;;;;;;;;;;5006740;28;19944;-84
2022/01/07 12:03:24;;;;;;;;;;;;;;;;;;5024818;28;19944;-83
2022/01/07 12:05:50;;;;;;;;;;;;;;;;;;5022031;28;19971;-83
2022/01/07 12:08:16;;;;;;;;;;;;;;;;;;5001746;28;20296;-84
2022/01/07 12:10:42;;;;;;;;;;;;;;;;;;5005031;28;19991;-83
2022/01/07 12:13:08;;;;;;;;;;;;;;;;;;5030439;28;19956;-83
2022/01/07 12:15:42;;;;;;;;;;;;;;;;;;5015997;28;22083;-83
2022/01/07 12:18:08;;;;;;;;;;;;;;;;;;5008282;28;19925;-83
2022/01/07 12:20:34;;;;;;;;;;;;;;;;;;5007054;28;20413;-83
2022/01/07 12:23:00;;;;;;;;;;;;;;;;;;5005671;28;19933;-84
2022/01/07 12:25:26;;;;;;;;;;;;;;;;;;5018820;28;19932;-82
2022/01/07 12:27:52;;;;;;;;;;;;;;;;;;5025606;28;20345;-83
2022/01/07 12:30:18;;;;;;;;;;;;;;;;;;5022017;28;19936;-84
2022/01/07 12:32:45;;;;;;;;;;;;;;;;;;5007332;28;19928;-83
2022/01/07 12:35:11;;;;;;;;;;;;;;;;;;5021265;28;20348;-84
2022/01/07 12:37:37;;;;;;;;;;;;;;;;;;5019671;28;19987;-84
2022/01/07 12:40:04;;;;;;;;;;;;;;;;;;5021578;28;19925;-84
2022/01/07 12:42:32;;;;;;;;;;;;;;;;;;5018122;28;20352;-84
2022/01/07 12:45:08;;;;;;;;;;;;;;;;;;5038632;28;20731;-84
2022/01/07 12:47:44;;;;;;;;;;;;;;;;;;;;;
2022/01/07 12:50:20;;;;;;;;;;;;;;;;;;5036093;28;19960;-84
2022/01/07 12:52:46;;;;;;;;;;;;;;;;;;5024142;28;19921;-84
2022/01/07 12:55:34;;;;;;;;;;;;;;;;;;5022005;28;20316;-85
2022/01/07 12:58:08;;;;;;;;;;;;;;;;;;5018189;28;20007;-85
2022/01/07 13:00:40;;;;;;;;;;;;;;;;;;5016260;28;20036;-84
2022/01/07 13:03:18;;;;;;;;;;;;;;;;;;5008442;28;20703;-84
2022/01/07 13:05:48;;;;;;;;;;;;;;;;;;5038916;28;19932;-84
2022/01/07 13:08:20;;;;;;;;;;;;;;;;;;5010694;28;19933;-84
2022/01/07 13:10:46;;;;;;;;;;;;;;;;;;5019826;28;20296;-84
2022/01/07 13:13:12;;;;;;;;;;;;;;;;;;5025336;28;20377;-84
2022/01/07 13:15:39;;;;;;;;;;;;;;;;;;5019468;28;20288;-84
2022/01/07 13:18:05;;;;;;;;;;;;;;;;;;5023066;28;20369;-85
2022/01/07 13:20:34;;;;;;;;;;;;;;;;;;5012825;28;20315;-84
2022/01/07 13:23:22;;;;;;;;;;;;;;;;;;5025091;28;19998;-84
2022/01/07 13:25:54;;;;;;;;;;;;;;;;;;5024296;28;19929;-84
2022/01/07 13:28:20;;;;;;;;;;;;;;;;;;5017853;28;19930;-85
2022/01/07 13:31:07;;;;;;;;;;;;;;;;;;5016484;28;19925;-85
2022/01/07 13:33:45;;;;;;;;;;;;;;;;;;;;;
2022/01/07 13:36:11;;;;;;;;;;;;;;;;;;5034698;28;19921;-85
2022/01/07 13:38:40;;;;;;;;;;;;;;;;;;5016729;28;19925;-85
2022/01/07 13:41:06;;;;;;;;;;;;;;;;;;5019100;28;19929;-84
2022/01/07 13:43:32;;;;;;;;;;;;;;;;;;5017554;28;19952;-85
2022/01/07 13:45:58;;;;;;;;;;;;;;;;;;4998749;28;19925;-85
2022/01/07 13:48:24;;;;;;;;;;;;;;;;;;5014389;28;19952;-85
2022/01/07 13:50:50;;;;;;;;;;;;;;;;;;5018487;28;20059;-84
2022/01/07 13:53:16;;;;;;;;;;;;;;;;;;5013187;28;20268;-84
2022/01/07 13:55:42;;;;;;;;;;;;;;;;;;5012095;28;20015;-85
2022/01/07 13:58:08;;;;;;;;;;;;;;;;;;5016928;28;20008;-85
2022/01/07 14:00:34;;;;;;;;;;;;;;;;;;5012371;28;22458;-85
2022/01/07 14:03:00;;;;;;;;;;;;;;;;;;5011916;28;20331;-86
2022/01/07 14:05:26;;;;;;;;;;;;;;;;;;5006028;28;19967;-85
2022/01/07 14:07:56;;;;;;;;;;;;;;;;;;5033882;28;19990;-86
2022/01/07 14:10:22;;;;;;;;;;;;;;;;;;5015394;28;19933;-86
2022/01/07 14:12:48;;;;;;;;;;;;;;;;;;5018959;28;19925;-86
2022/01/07 14:15:16;;;;;;;;;;;;;;;;;;5003797;28;20284;-86
2022/01/07 14:17:42;;;;;;;;;;;;;;;;;;5020099;28;20441;-86
2022/01/07 14:20:08;;;;;;;;;;;;;;;;;;5016791;28;19925;-88
2022/01/07 14:22:38;;;;;;;;;;;;;;;;;;4996706;28;21663;-86
2022/01/07 14:25:04;;;;;;;;;;;;;;;;;;4997848;28;19956;-87
2022/01/07 14:27:31;;;;;;;;;;;;;;;;;;5009121;28;19941;-87
2022/01/07 14:29:57;;;;;;;;;;;;;;;;;;5017674;28;19925;-86
2022/01/07 14:32:25;;;;;;;;;;;;;;;;;;4993164;28;22619;-87
2022/01/07 14:34:51;;;;;;;;;;;;;;;;;;4997340;28;19986;-87
2022/01/07 14:37:17;;;;;;;;;;;;;;;;;;5012116;28;19925;-87
2022/01/07 14:39:45;;;;;;;;;;;;;;;;;;5030007;28;19935;-87
2022/01/07 14:42:11;;;;;;;;;;;;;;;;;;5060875;28;20046;-86
2022/01/07 14:44:37;;;;;;;;;;;;;;;;;;5052564;28;20006;-86
2022/01/07 14:47:03;;;;;;;;;;;;;;;;;;5037894;28;20117;-86
2022/01/07 14:49:29;;;;;;;;;;;;;;;;;;5035203;28;19935;-87
2022/01/07 14:51:55;;;;;;;;;;;;;;;;;;5038904;28;20006;-86
2022/01/07 14:54:21;;;;;;;;;;;;;;;;;;5033417;28;20359;-84
2022/01/07 14:56:47;;;;;;;;;;;;;;;;;;5040286;28;19924;-84
2022/01/07 14:59:13;;;;;;;;;;;;;;;;;;5018396;28;19935;-85
2022/01/07 15:01:40;;;;;;;;;;;;;;;;;;5033232;28;19959;-87
2022/01/07 15:04:06;;;;;;;;;;;;;;;;;;5057246;28;19928;-86
2022/01/07 15:06:32;;;;;;;;;;;;;;;;;;5054903;28;19927;-85
2022/01/07 15:08:58;;;;;;;;;;;;;;;;;;5020195;28;19939;-86
2022/01/07 15:11:24;;;;;;;;;;;;;;;;;;5027712;28;19959;-86
2022/01/07 15:13:50;;;;;;;;;;;;;;;;;;5032966;28;19920;-86
2022/01/07 15:19:04;;;;;;;;;;;;;;;;;;5039009;28;20015;-87
2022/01/07 15:21:30;;;;;;;;;;;;;;;;;;5035766;28;20007;-85
2022/01/07 15:23:59;;;;;;;;;;;;;;;;;;5023846;28;20260;-86
2022/01/07 15:26:25;;;;;;;;;;;;;;;;;;5036920;28;19916;-86
2022/01/07 15:28:51;;;;;;;;;;;;;;;;;;5023528;28;19928;-86
2022/01/07 15:31:17;;;;;;;;;;;;;;;;;;5033451;28;19924;-86
2022/01/07 15:33:43;;;;;;;;;;;;;;;;;;5032800;28;20122;-86
2022/01/07 15:36:09;;;;;;;;;;;;;;;;;;5019895;28;20060;-86
2022/01/07 15:38:36;;;;;;;;;;;;;;;;;;5029845;28;19928;-84
2022/01/07 15:41:03;;;;;;;;;;;;;;;;;;5033834;28;20040;-84
2022/01/07 15:43:29;;;;;;;;;;;;;;;;;;5028821;28;19999;-84
2022/01/07 15:45:55;;;;;;;;;;;;;;;;;;5036051;28;19924;-84
2022/01/07 15:48:21;;;;;;;;;;;;;;;;;;5052739;28;19921;-85
2022/01/07 15:50:47;;;;;;;;;;;;;;;;;;5036887;28;20355;-86
2022/01/07 15:53:14;;;;;;;;;;;;;;;;;;5038385;28;19973;-85
2022/01/07 15:55:40;;;;;;;;;;;;;;;;;;5033604;28;19964;-83
2022/01/07 15:58:06;;;;;;;;;;;;;;;;;;5038863;28;19931;-83
2022/01/07 16:00:35;;;;;;;;;;;;;;;;;;5035973;28;20436;-84
2022/01/07 16:03:02;;;;;;;;;;;;;;;;;;5038614;28;20623;-83
2022/01/07 16:05:33;;;;;;;;;;;;;;;;;;5019835;28;20004;-85
2022/01/07 16:07:59;;;;;;;;;;;;;;;;;;5021214;28;20023;-85
2022/01/07 16:10:25;;;;;;;;;;;;;;;;;;5027914;28;19929;-85
2022/01/07 16:12:51;;;;;;;;;;;;;;;;;;5050109;28;19929;-84
2022/01/07 16:15:22;;;;;;;;;;;;;;;;;;5050286;28;19931;-90
2022/01/07 16:17:52;;;;;;;;;;;;;;;;;;5038391;28;19994;-88
2022/01/07 16:20:21;;;;;;;;;;;;;;;;;;5040367;28;19921;-84
2022/01/07 16:22:47;;;;;;;;;;;;;;;;;;5057357;28;19925;-82
2022/01/07 16:25:13;;;;;;;;;;;;;;;;;;5053136;28;20008;-83
2022/01/07 16:27:39;;;;;;;;;;;;;;;;;;5054975;28;20436;-80
2022/01/07 16:30:05;;;;;;;;;;;;;;;;;;5056051;28;19928;-82
2022/01/07 16:32:31;;;;;;;;;;;;;;;;;;5033437;28;19929;-79
2022/01/07 16:34:57;;;;;;;;;;;;;;;;;;5039557;28;20286;-81
2022/01/07 16:37:23;;;;;;;;;;;;;;;;;;5037754;28;19929;-80
2022/01/07 16:39:49;;;;;;;;;;;;;;;;;;5038953;28;20252;-81
2022/01/07 16:42:17;;;;;;;;;;;;;;;;;;5045288;28;19944;-83
2022/01/07 16:44:43;;;;;;;;;;;;;;;;;;5046683;28;19964;-81
2022/01/07 16:47:09;;;;;;;;;;;;;;;;;;5046647;28;19973;-80
2022/01/07 16:49:37;;;;;;;;;;;;;;;;;;5059383;28;20000;-83
2022/01/07 16:52:03;;;;;;;;;;;;;;;;;;5044624;28;19928;-82
2022/01/07 16:54:29;;;;;;;;;;;;;;;;;;5022655;28;19916;-82
2022/01/07 16:57:00;;;;;;;;;;;;;;;;;;5047376;28;20397;-81
2022/01/07 16:59:26;;;;;;;;;;;;;;;;;;5041288;28;19970;-82
2022/01/07 17:01:52;;;;;;;;;;;;;;;;;;5047852;28;20372;-82
2022/01/07 17:04:18;;;;;;;;;;;;;;;;;;5031340;28;19931;-81
2022/01/07 17:06:44;;;;;;;;;;;;;;;;;;5052063;28;19917;-82